createdAt,value
2022-07-29T00:01:19.583Z,7.93
2022-07-29T00:04:04.969Z,11.25
2022-07-29T00:06:49.819Z,10.45
2022-07-29T00:09:43.004Z,10.52
2022-07-29T00:12:36.759Z,10.90
2022-07-29T00:15:21.983Z,9.88
2022-07-29T00:18:07.052Z,12.50
2022-07-29T00:20:52.140Z,16.52
2022-07-29T00:23:37.216Z,12.15
2022-07-29T00:26:22.500Z,12.38
2022-07-29T00:29:33.101Z,13.50
2022-07-29T00:32:12.953Z,14.18
2022-07-29T00:35:16.185Z,16.13
2022-07-29T00:38:01.137Z,15.20
2022-07-29T00:40:47.900Z,13.70
2022-07-29T00:43:32.625Z,15.02
2022-07-29T00:46:17.690Z,16.08
2022-07-29T00:49:02.792Z,14.48
2022-07-29T00:51:49.021Z,12.75
2022-07-29T00:54:34.732Z,11.02
2022-07-29T00:57:20.476Z,15.05
2022-07-29T01:00:07.691Z,12.40
2022-07-29T01:02:53.306Z,11.52
2022-07-29T01:05:48.117Z,12.43
2022-07-29T01:08:37.125Z,12.75
2022-07-29T01:11:22.048Z,12.57
2022-07-29T01:14:07.777Z,12.70
2022-07-29T01:17:02.388Z,12.00
2022-07-29T01:20:08.764Z,12.20
2022-07-29T01:23:32.529Z,10.88
2022-07-29T01:26:23.528Z,10.65
2022-07-29T01:29:18.391Z,10.00
2022-07-29T01:32:20.286Z,11.20
2022-07-29T01:35:19.507Z,13.05
2022-07-29T01:38:16.945Z,11.88
2022-07-29T01:41:16.965Z,9.95
2022-07-29T01:44:15.971Z,9.02
2022-07-29T01:47:16.231Z,10.65
2022-07-29T01:50:06.384Z,10.35
2022-07-29T01:52:57.413Z,10.35
2022-07-29T01:55:46.377Z,11.00
2022-07-29T01:58:33.639Z,9.85
2022-07-29T02:01:20.223Z,12.82
2022-07-29T02:04:10.202Z,11.15
2022-07-29T02:07:00.978Z,10.35
2022-07-29T02:09:48.055Z,11.57
2022-07-29T02:12:34.283Z,10.50
2022-07-29T02:15:19.542Z,11.77
2022-07-29T02:18:31.204Z,11.82
2022-07-29T02:21:21.884Z,13.55
2022-07-29T02:24:11.476Z,10.60
2022-07-29T02:26:58.565Z,11.10
2022-07-29T02:29:45.955Z,11.98
2022-07-29T02:32:32.882Z,11.70
2022-07-29T02:35:18.959Z,10.90
2022-07-29T02:38:23.320Z,14.23
2022-07-29T02:41:15.814Z,12.75
2022-07-29T02:44:12.100Z,12.82
2022-07-29T02:47:10.949Z,14.15
2022-07-29T02:50:28.330Z,12.73
2022-07-29T02:53:20.536Z,11.95
2022-07-29T02:56:11.147Z,12.48
2022-07-29T03:01:44.604Z,16.15
2022-07-29T03:04:32.666Z,12.40
2022-07-29T03:07:20.394Z,12.35
2022-07-29T03:10:13.436Z,13.07
2022-07-29T03:12:59.526Z,14.63
2022-07-29T03:15:45.796Z,13.85
2022-07-29T03:18:31.639Z,12.25
2022-07-29T03:21:16.893Z,16.08
2022-07-29T03:24:04.512Z,14.65
2022-07-29T03:26:53.354Z,12.38
2022-07-29T03:29:38.059Z,11.65
2022-07-29T03:32:25.264Z,10.20
2022-07-29T03:35:10.649Z,12.35
2022-07-29T03:37:55.345Z,13.50
2022-07-29T03:40:49.226Z,12.07
2022-07-29T03:43:38.722Z,10.75
2022-07-29T03:46:36.155Z,12.45
2022-07-29T03:49:23.561Z,13.32
2022-07-29T03:52:09.440Z,12.63
2022-07-29T03:54:54.581Z,13.40
2022-07-29T03:57:40.875Z,12.88
2022-07-29T04:00:27.359Z,13.18
2022-07-29T04:03:13.603Z,9.45
2022-07-29T04:06:07.055Z,11.18
2022-07-29T04:08:52.744Z,11.07
2022-07-29T04:12:01.820Z,8.52
2022-07-29T04:14:44.598Z,10.50
2022-07-29T04:17:29.646Z,11.30
2022-07-29T04:20:14.760Z,8.18
2022-07-29T04:22:59.870Z,8.43
2022-07-29T04:25:44.641Z,8.45
2022-07-29T04:28:29.492Z,7.28
2022-07-29T04:31:14.660Z,7.35
2022-07-29T04:33:59.570Z,9.30
2022-07-29T04:36:44.407Z,10.00
2022-07-29T04:39:30.459Z,10.10
2022-07-29T04:42:15.434Z,8.65
2022-07-29T04:45:02.853Z,9.18
2022-07-29T04:47:51.079Z,11.05
2022-07-29T04:50:39.213Z,8.57
2022-07-29T04:53:24.651Z,7.78
2022-07-29T04:56:09.767Z,7.22
2022-07-29T04:58:54.667Z,7.07
2022-07-29T05:01:39.730Z,8.02
2022-07-29T05:04:24.678Z,10.32
2022-07-29T05:07:09.529Z,6.50
2022-07-29T05:09:57.262Z,7.05
2022-07-29T05:12:42.658Z,8.88
2022-07-29T05:15:27.677Z,7.05
2022-07-29T05:18:12.843Z,10.18
2022-07-29T05:20:57.798Z,5.80
2022-07-29T05:23:42.665Z,5.78
2022-07-29T05:26:27.953Z,5.60
2022-07-29T05:29:43.055Z,8.00
2022-07-29T05:32:17.600Z,7.07
2022-07-29T05:35:03.111Z,7.50
2022-07-29T05:37:48.059Z,5.32
2022-07-29T05:40:33.261Z,6.75
2022-07-29T05:43:18.009Z,7.47
2022-07-29T05:46:03.272Z,5.38
2022-07-29T05:48:48.693Z,6.80
2022-07-29T05:51:34.349Z,7.68
2022-07-29T05:54:19.483Z,6.10
2022-07-29T05:57:04.620Z,6.28
2022-07-29T05:59:51.173Z,4.97
2022-07-29T06:02:36.553Z,5.28
2022-07-29T06:05:22.080Z,5.95
2022-07-29T06:08:07.556Z,5.50
2022-07-29T06:10:52.482Z,6.75
2022-07-29T06:13:37.476Z,5.03
2022-07-29T06:16:29.963Z,5.63
2022-07-29T06:19:15.405Z,7.05
2022-07-29T06:22:00.425Z,6.30
2022-07-29T06:24:45.426Z,5.18
2022-07-29T06:27:30.393Z,5.50
2022-07-29T06:30:15.232Z,4.22
2022-07-29T06:33:01.753Z,5.75
2022-07-29T06:35:55.158Z,5.35
2022-07-29T06:38:42.853Z,7.90
2022-07-29T06:41:31.020Z,4.20
2022-07-29T06:44:20.555Z,5.78
2022-07-29T06:47:05.614Z,5.15
2022-07-29T06:49:50.489Z,5.10
2022-07-29T06:52:35.374Z,10.25
2022-07-29T06:55:24.715Z,13.23
2022-07-29T06:58:11.285Z,13.02
2022-07-29T07:00:58.203Z,8.50
2022-07-29T07:03:42.918Z,6.38
2022-07-29T07:06:28.138Z,7.63
2022-07-29T07:09:12.771Z,5.72
2022-07-29T07:11:57.742Z,5.43
2022-07-29T07:14:42.881Z,6.13
2022-07-29T07:17:27.898Z,9.13
2022-07-29T07:20:13.264Z,6.70
2022-07-29T07:22:58.549Z,8.55
2022-07-29T07:25:44.007Z,5.85
2022-07-29T07:28:29.814Z,6.68
2022-07-29T07:31:14.698Z,6.55
2022-07-29T07:33:59.727Z,5.18
2022-07-29T07:36:44.866Z,8.85
2022-07-29T07:39:31.719Z,5.63
2022-07-29T07:42:16.763Z,5.32
2022-07-29T07:45:13.601Z,6.05
2022-07-29T07:48:00.841Z,9.38
2022-07-29T07:50:45.962Z,7.70
2022-07-29T07:53:31.109Z,6.10
2022-07-29T07:56:17.453Z,7.18
2022-07-29T07:59:02.428Z,6.18
2022-07-29T08:01:55.028Z,5.55
2022-07-29T08:04:41.390Z,7.38
2022-07-29T08:07:26.264Z,7.03
2022-07-29T08:10:11.170Z,6.10
2022-07-29T08:12:56.100Z,6.28
2022-07-29T08:15:43.186Z,6.95
2022-07-29T08:18:30.005Z,6.28
2022-07-29T08:21:16.049Z,4.88
2022-07-29T08:24:19.675Z,6.35
2022-07-29T08:27:09.810Z,5.65
2022-07-29T08:30:01.757Z,6.00
2022-07-29T08:32:54.167Z,4.88
2022-07-29T08:35:40.610Z,6.07
2022-07-29T08:38:26.616Z,7.15
2022-07-29T08:41:11.956Z,6.53
2022-07-29T08:43:57.085Z,5.18
2022-07-29T08:46:42.996Z,4.18
2022-07-29T08:49:27.930Z,5.82
2022-07-29T08:52:13.213Z,4.70
2022-07-29T08:54:58.053Z,5.63
2022-07-29T08:57:50.943Z,5.43
2022-07-29T09:00:43.492Z,4.95
2022-07-29T09:03:36.395Z,4.72
2022-07-29T09:06:22.693Z,3.78
2022-07-29T09:09:08.342Z,6.65
2022-07-29T09:11:53.945Z,4.50
2022-07-29T09:14:39.871Z,4.55
2022-07-29T09:17:46.837Z,4.20
2022-07-29T09:20:50.860Z,4.35
2022-07-29T09:23:36.250Z,4.18
2022-07-29T09:26:29.118Z,4.35
2022-07-29T09:29:16.988Z,7.90
2022-07-29T09:32:07.396Z,4.72
2022-07-29T09:35:22.341Z,5.50
2022-07-29T09:38:14.140Z,3.85
2022-07-29T09:41:05.818Z,5.10
2022-07-29T09:43:59.481Z,5.13
2022-07-29T09:47:08.874Z,4.10
2022-07-29T09:49:59.506Z,4.55
2022-07-29T09:52:49.666Z,4.63
2022-07-29T09:55:50.512Z,4.22
2022-07-29T09:58:36.561Z,4.63
2022-07-29T10:01:29.209Z,6.63
2022-07-29T10:04:14.684Z,5.28
2022-07-29T10:07:04.663Z,5.85
2022-07-29T10:09:57.532Z,6.15
2022-07-29T10:12:50.800Z,6.85
2022-07-29T10:15:39.536Z,6.57
2022-07-29T10:18:24.364Z,4.20
2022-07-29T10:21:10.503Z,4.97
2022-07-29T10:24:01.143Z,6.03
2022-07-29T10:26:48.491Z,4.13
2022-07-29T10:29:33.508Z,5.43
2022-07-29T10:32:28.926Z,4.97
2022-07-29T10:35:39.501Z,8.05
2022-07-29T10:38:35.234Z,5.07
2022-07-29T10:42:08.183Z,5.30
2022-07-29T10:44:55.065Z,5.95
2022-07-29T10:47:39.909Z,4.90
2022-07-29T10:50:26.667Z,5.55
2022-07-29T10:53:12.218Z,4.18
2022-07-29T10:55:59.863Z,5.03
2022-07-29T10:58:49.933Z,8.45
2022-07-29T11:01:39.384Z,6.57
2022-07-29T11:04:47.069Z,6.63
2022-07-29T11:07:45.862Z,6.43
2022-07-29T11:10:31.956Z,5.78
2022-07-29T11:13:50.874Z,6.78
2022-07-29T11:17:06.064Z,5.18
2022-07-29T11:19:52.428Z,4.97
2022-07-29T11:22:37.783Z,5.75
2022-07-29T11:25:42.431Z,4.60
2022-07-29T11:28:59.401Z,6.10
2022-07-29T11:31:48.811Z,4.72
2022-07-29T11:34:34.801Z,5.85
2022-07-29T11:37:28.384Z,8.65
2022-07-29T11:40:15.981Z,4.68
2022-07-29T11:43:03.122Z,5.43
2022-07-29T11:45:52.302Z,5.80
2022-07-29T11:48:42.035Z,5.25
2022-07-29T11:51:32.703Z,6.68
2022-07-29T11:54:27.519Z,6.57
2022-07-29T11:57:13.338Z,6.80
2022-07-29T12:00:09.501Z,5.60
2022-07-29T12:02:56.426Z,4.97
2022-07-29T12:05:48.279Z,3.80
2022-07-29T12:08:42.844Z,8.23
2022-07-29T12:11:27.948Z,6.97
2022-07-29T12:14:32.867Z,6.45
2022-07-29T12:17:33.548Z,4.43
2022-07-29T12:20:30.294Z,5.03
2022-07-29T12:23:16.797Z,4.70
2022-07-29T12:26:11.068Z,3.78
2022-07-29T12:29:11.240Z,5.40
2022-07-29T12:32:00.479Z,3.90
2022-07-29T12:34:46.057Z,5.30
2022-07-29T12:37:41.306Z,4.07
2022-07-29T12:40:27.800Z,5.35
2022-07-29T12:43:18.378Z,4.70
2022-07-29T12:46:15.035Z,5.78
2022-07-29T12:49:00.259Z,7.53
2022-07-29T12:51:45.380Z,6.25
2022-07-29T12:54:30.649Z,4.40
2022-07-29T12:57:20.017Z,5.50
2022-07-29T13:00:10.967Z,8.02
2022-07-29T13:02:58.115Z,6.90
2022-07-29T13:05:49.066Z,5.07
2022-07-29T13:08:34.723Z,7.60
2022-07-29T13:11:51.424Z,6.95
2022-07-29T13:14:46.247Z,6.88
2022-07-29T13:17:40.941Z,8.05
2022-07-29T13:20:32.226Z,7.07
2022-07-29T13:23:17.149Z,8.40
2022-07-29T13:26:09.840Z,11.82
2022-07-29T13:28:55.564Z,7.55
2022-07-29T13:31:40.343Z,7.18
2022-07-29T13:34:25.226Z,8.43
2022-07-29T13:37:10.598Z,7.60
2022-07-29T13:39:56.504Z,7.53
2022-07-29T13:42:41.847Z,8.15
2022-07-29T13:45:29.153Z,6.95
2022-07-29T13:48:14.200Z,6.68
2022-07-29T13:50:59.117Z,7.80
2022-07-29T13:53:44.120Z,5.22
2022-07-29T13:56:29.182Z,5.90
2022-07-29T13:59:14.363Z,9.52
2022-07-29T14:02:00.296Z,14.98
2022-07-29T14:04:45.880Z,12.32
2022-07-29T14:07:30.820Z,12.88
2022-07-29T14:10:19.961Z,10.88
2022-07-29T14:13:05.199Z,8.52
2022-07-29T14:15:50.337Z,7.75
2022-07-29T14:18:35.662Z,7.53
2022-07-29T14:21:20.635Z,8.55
2022-07-29T14:24:17.082Z,6.90
2022-07-29T14:27:03.747Z,9.13
2022-07-29T14:29:48.556Z,6.78
2022-07-29T14:32:33.406Z,6.15
2022-07-29T14:35:18.569Z,8.55
2022-07-29T14:38:03.541Z,6.07
2022-07-29T14:40:50.897Z,8.07
2022-07-29T14:43:36.254Z,7.22
2022-07-29T14:46:21.354Z,6.95
2022-07-29T14:49:06.610Z,8.45
2022-07-29T14:51:54.432Z,8.88
2022-07-29T14:54:39.311Z,5.80
2022-07-29T14:57:24.844Z,6.90
2022-07-29T15:00:11.584Z,5.68
2022-07-29T15:03:03.766Z,6.78
2022-07-29T15:05:49.162Z,5.93
2022-07-29T15:08:34.122Z,8.25
2022-07-29T15:11:19.318Z,6.45
2022-07-29T15:14:03.863Z,7.97
2022-07-29T15:16:48.883Z,6.32
2022-07-29T15:19:33.923Z,6.95
2022-07-29T15:22:18.999Z,6.78
2022-07-29T15:25:05.101Z,6.68
2022-07-29T15:27:52.346Z,6.07
2022-07-29T15:30:41.225Z,8.20
2022-07-29T15:33:26.785Z,6.75
2022-07-29T15:36:25.408Z,6.88
2022-07-29T15:39:18.386Z,6.53
2022-07-29T15:42:03.566Z,7.32
2022-07-29T15:44:48.750Z,8.30
2022-07-29T15:47:36.020Z,7.82
2022-07-29T15:50:21.520Z,7.10
2022-07-29T15:53:06.440Z,7.75
2022-07-29T15:55:51.976Z,7.47
2022-07-29T15:58:36.752Z,7.80
2022-07-29T16:01:21.922Z,7.45
2022-07-29T16:04:06.874Z,8.07
2022-07-29T16:06:52.310Z,8.55
2022-07-29T16:09:37.547Z,9.00
2022-07-29T16:12:22.274Z,8.20
2022-07-29T16:15:10.266Z,8.95
2022-07-29T16:17:55.505Z,8.15
2022-07-29T16:20:41.415Z,9.90
2022-07-29T16:23:27.158Z,8.68
2022-07-29T16:26:12.092Z,7.32
2022-07-29T16:28:57.344Z,5.97
2022-07-29T16:31:42.047Z,6.20
2022-07-29T16:34:27.074Z,7.15
2022-07-29T16:37:12.097Z,6.47
2022-07-29T16:39:57.476Z,8.52
2022-07-29T16:42:47.180Z,7.07
2022-07-29T16:45:45.770Z,6.53
2022-07-29T16:48:31.365Z,6.80
2022-07-29T16:51:16.545Z,6.93
2022-07-29T16:54:01.476Z,8.45
2022-07-29T16:56:46.579Z,7.43
2022-07-29T16:59:31.971Z,7.30
2022-07-29T17:02:17.728Z,7.60
2022-07-29T17:05:03.058Z,8.00
2022-07-29T17:07:48.053Z,7.22
2022-07-29T17:10:32.915Z,6.88
2022-07-29T17:13:17.796Z,8.10
2022-07-29T17:16:03.159Z,7.15
2022-07-29T17:18:48.223Z,7.38
2022-07-29T17:21:33.251Z,7.63
2022-07-29T17:24:18.367Z,6.72
2022-07-29T17:27:04.049Z,6.88
2022-07-29T17:29:48.747Z,9.35
2022-07-29T17:32:37.937Z,8.38
2022-07-29T17:35:41.087Z,10.10
2022-07-29T17:38:26.048Z,7.68
2022-07-29T17:41:11.150Z,8.02
2022-07-29T17:43:56.922Z,9.80
2022-07-29T17:46:42.085Z,8.68
2022-07-29T17:49:27.612Z,9.30
2022-07-29T17:52:12.879Z,10.10
2022-07-29T17:54:57.882Z,7.22
2022-07-29T17:57:42.877Z,7.32
2022-07-29T18:00:27.741Z,7.63
2022-07-29T18:03:12.818Z,9.90
2022-07-29T18:05:58.112Z,7.65
2022-07-29T18:08:46.988Z,8.43
2022-07-29T18:11:32.169Z,10.20
2022-07-29T18:14:17.158Z,9.88
2022-07-29T18:17:02.177Z,9.95
2022-07-29T18:19:48.220Z,9.55
2022-07-29T18:22:33.938Z,8.52
2022-07-29T18:25:18.990Z,9.75
2022-07-29T18:28:04.687Z,10.73
2022-07-29T18:30:50.730Z,9.15
2022-07-29T18:33:40.119Z,8.00
2022-07-29T18:36:25.206Z,10.93
2022-07-29T18:39:10.036Z,8.70
2022-07-29T18:42:14.917Z,10.15
2022-07-29T18:44:59.450Z,10.73
2022-07-29T18:47:44.971Z,11.05
2022-07-29T18:50:32.151Z,9.00
2022-07-29T18:53:16.901Z,12.95
2022-07-29T18:56:02.863Z,10.90
2022-07-29T18:58:47.744Z,10.15
2022-07-29T19:01:32.939Z,8.52
2022-07-29T19:04:18.797Z,10.93
2022-07-29T19:07:03.820Z,11.07
2022-07-29T19:09:49.542Z,10.32
2022-07-29T19:12:34.643Z,9.80
2022-07-29T19:15:20.131Z,8.68
2022-07-29T19:18:05.347Z,9.35
2022-07-29T19:20:50.667Z,10.55
2022-07-29T19:24:05.913Z,8.32
2022-07-29T19:26:46.080Z,8.20
2022-07-29T19:29:32.130Z,9.45
2022-07-29T19:32:25.345Z,8.90
2022-07-29T19:35:30.617Z,11.00
2022-07-29T19:38:15.531Z,10.52
2022-07-29T19:41:00.484Z,10.07
2022-07-29T19:43:51.959Z,8.55
2022-07-29T19:46:38.206Z,8.20
2022-07-29T19:49:23.008Z,8.43
2022-07-29T19:52:07.770Z,11.15
2022-07-29T19:54:53.081Z,10.52
2022-07-29T19:57:40.984Z,8.52
2022-07-29T20:00:26.283Z,8.85
2022-07-29T20:03:12.267Z,9.85
2022-07-29T20:05:57.690Z,8.07
2022-07-29T20:08:42.724Z,9.20
2022-07-29T20:11:29.128Z,8.23
2022-07-29T20:14:14.361Z,9.35
2022-07-29T20:16:59.469Z,9.45
2022-07-29T20:19:49.131Z,10.65
2022-07-29T20:22:35.484Z,8.25
2022-07-29T20:25:20.839Z,8.88
2022-07-29T20:28:06.441Z,7.13
2022-07-29T20:30:51.909Z,8.68
2022-07-29T20:33:36.653Z,10.77
2022-07-29T20:36:21.565Z,7.43
2022-07-29T20:39:06.731Z,10.15
2022-07-29T20:41:51.533Z,8.30
2022-07-29T20:44:36.529Z,10.95
2022-07-29T20:47:21.884Z,7.03
2022-07-29T20:50:09.310Z,10.95
2022-07-29T20:52:54.272Z,8.70
2022-07-29T20:55:39.087Z,7.20
2022-07-29T20:58:24.111Z,8.63
2022-07-29T21:01:09.311Z,8.93
2022-07-29T21:03:54.473Z,9.38
2022-07-29T21:06:39.748Z,8.50
2022-07-29T21:09:24.554Z,8.63
2022-07-29T21:12:10.636Z,7.18
2022-07-29T21:14:56.899Z,7.55
2022-07-29T21:17:48.144Z,11.55
2022-07-29T21:20:33.020Z,6.82
2022-07-29T21:23:17.891Z,9.60
2022-07-29T21:26:03.610Z,9.50
2022-07-29T21:28:50.166Z,13.20
2022-07-29T21:31:35.703Z,9.07
2022-07-29T21:34:20.858Z,10.75
2022-07-29T21:37:05.791Z,10.82
2022-07-29T21:39:52.139Z,11.82
2022-07-29T21:42:37.472Z,9.15
2022-07-29T21:45:22.613Z,10.23
2022-07-29T21:48:08.097Z,9.57
2022-07-29T21:50:53.390Z,9.68
2022-07-29T21:53:38.389Z,9.35
2022-07-29T21:56:27.502Z,10.85
2022-07-29T21:59:12.989Z,10.43
2022-07-29T22:02:00.681Z,8.57
2022-07-29T22:04:45.434Z,8.63
2022-07-29T22:07:54.462Z,7.38
2022-07-29T22:10:35.320Z,8.13
2022-07-29T22:13:20.478Z,8.65
2022-07-29T22:16:05.873Z,9.18
2022-07-29T22:18:50.829Z,8.95
2022-07-29T22:21:35.757Z,6.85
2022-07-29T22:24:20.844Z,10.10
2022-07-29T22:27:05.603Z,7.60
2022-07-29T22:29:50.850Z,9.38
2022-07-29T22:32:35.960Z,7.55
2022-07-29T22:35:21.185Z,6.80
2022-07-29T22:38:06.096Z,8.02
2022-07-29T22:40:51.811Z,9.05
2022-07-29T22:43:38.979Z,6.93
2022-07-29T22:46:23.815Z,7.53
2022-07-29T22:49:08.935Z,7.80
2022-07-29T22:51:53.743Z,6.05
2022-07-29T22:54:39.042Z,8.48
2022-07-29T22:57:23.913Z,7.20
2022-07-29T23:00:09.574Z,7.35
2022-07-29T23:02:54.837Z,8.90
2022-07-29T23:05:39.895Z,7.85
2022-07-29T23:08:24.928Z,6.90
2022-07-29T23:11:10.209Z,6.35
2022-07-29T23:13:54.964Z,8.32
2022-07-29T23:16:39.872Z,8.23
2022-07-29T23:19:24.774Z,7.38
2022-07-29T23:22:10.287Z,6.97
2022-07-29T23:24:55.509Z,8.05
2022-07-29T23:27:40.800Z,6.90
2022-07-29T23:30:25.620Z,8.13
2022-07-29T23:33:10.410Z,7.22
2022-07-29T23:35:55.486Z,9.40
2022-07-29T23:38:40.518Z,10.75
2022-07-29T23:41:30.055Z,10.38
2022-07-29T23:44:15.127Z,8.20
2022-07-29T23:47:01.684Z,8.85
2022-07-29T23:49:49.273Z,7.97
2022-07-29T23:52:35.549Z,8.45
2022-07-29T23:55:38.293Z,10.80
2022-07-29T23:58:24.546Z,8.73
